createdAt,value
2022-09-07T00:01:09.609Z,19.21
2022-09-07T00:03:36.390Z,19.20
2022-09-07T00:06:08.639Z,19.21
2022-09-07T00:08:35.397Z,19.22
2022-09-07T00:11:05.148Z,19.25
2022-09-07T00:13:34.411Z,19.21
2022-09-07T00:16:06.129Z,19.27
2022-09-07T00:18:32.891Z,19.29
2022-09-07T00:21:08.503Z,19.36
2022-09-07T00:23:36.889Z,19.50
2022-09-07T00:26:05.894Z,19.59
2022-09-07T00:28:33.083Z,19.48
2022-09-07T00:30:59.869Z,19.38
2022-09-07T00:33:26.891Z,19.01
2022-09-07T00:35:53.727Z,18.54
2022-09-07T00:38:20.317Z,18.18
2022-09-07T00:40:46.996Z,18.03
2022-09-07T00:43:17.171Z,17.96
2022-09-07T00:45:43.756Z,17.89
2022-09-07T00:48:17.046Z,17.82
2022-09-07T00:50:47.535Z,17.84
2022-09-07T00:53:18.531Z,17.17
2022-09-07T00:55:46.523Z,16.49
2022-09-07T00:58:13.377Z,16.04
2022-09-07T01:00:41.204Z,15.92
2022-09-07T01:03:08.864Z,15.79
2022-09-07T01:05:42.739Z,15.74
2022-09-07T01:08:09.875Z,15.61
2022-09-07T01:10:37.632Z,15.59
2022-09-07T01:13:04.658Z,15.54
2022-09-07T01:15:56.462Z,15.39
2022-09-07T01:19:34.742Z,15.35
2022-09-07T01:22:13.124Z,15.31
2022-09-07T01:24:39.742Z,15.38
2022-09-07T01:27:26.536Z,15.35
2022-09-07T01:29:59.509Z,15.27
2022-09-07T01:33:00.000Z,15.32
2022-09-07T01:35:50.392Z,15.36
2022-09-07T01:38:38.860Z,15.35
2022-09-07T01:41:11.696Z,15.38
2022-09-07T01:43:42.740Z,15.31
2022-09-07T01:46:25.558Z,15.32
2022-09-07T01:48:55.127Z,15.30
2022-09-07T01:51:23.439Z,15.27
2022-09-07T01:54:24.521Z,15.34
2022-09-07T01:56:53.715Z,15.26
2022-09-07T01:59:24.972Z,15.20
2022-09-07T02:01:56.046Z,15.25
2022-09-07T02:04:25.913Z,15.21
2022-09-07T02:07:06.370Z,15.24
2022-09-07T02:09:37.547Z,15.26
2022-09-07T02:12:27.472Z,15.19
2022-09-07T02:14:59.752Z,15.23
2022-09-07T02:17:31.803Z,15.25
2022-09-07T02:20:04.740Z,15.20
2022-09-07T02:22:34.811Z,15.32
2022-09-07T02:25:03.988Z,15.35
2022-09-07T02:27:36.260Z,15.39
2022-09-07T02:30:03.042Z,15.37
2022-09-07T02:32:29.605Z,15.37
2022-09-07T02:34:56.234Z,15.41
2022-09-07T02:37:23.212Z,15.40
2022-09-07T02:39:49.988Z,15.40
2022-09-07T02:42:16.602Z,15.36
2022-09-07T02:44:45.622Z,15.38
2022-09-07T02:47:49.779Z,15.34
2022-09-07T02:50:30.064Z,15.35
2022-09-07T02:53:41.367Z,15.38
2022-09-07T02:56:35.955Z,15.39
2022-09-07T02:59:21.232Z,15.41
2022-09-07T03:01:48.053Z,15.43
2022-09-07T03:04:33.385Z,15.45
2022-09-07T03:07:14.053Z,15.46
2022-09-07T03:09:44.195Z,15.46
2022-09-07T03:12:11.113Z,15.38
2022-09-07T03:14:40.461Z,15.35
2022-09-07T03:17:07.520Z,15.36
2022-09-07T03:19:34.113Z,15.37
2022-09-07T03:22:00.768Z,15.27
2022-09-07T03:24:27.377Z,15.15
2022-09-07T03:26:53.958Z,15.07
2022-09-07T03:29:20.552Z,15.06
2022-09-07T03:31:47.159Z,15.08
2022-09-07T03:34:13.813Z,15.03
2022-09-07T03:36:40.429Z,15.07
2022-09-07T03:39:07.138Z,15.11
2022-09-07T03:41:34.441Z,15.09
2022-09-07T03:44:05.112Z,14.94
2022-09-07T03:46:32.630Z,14.93
2022-09-07T03:48:59.434Z,14.93
2022-09-07T03:51:26.101Z,14.88
2022-09-07T03:53:52.653Z,14.81
2022-09-07T03:56:21.424Z,14.72
2022-09-07T03:58:48.679Z,14.65
2022-09-07T04:01:20.788Z,14.64
2022-09-07T04:03:48.098Z,14.59
2022-09-07T04:06:15.699Z,14.55
2022-09-07T04:08:43.248Z,14.45
2022-09-07T04:11:13.168Z,14.47
2022-09-07T04:13:40.088Z,14.40
2022-09-07T04:16:11.669Z,14.37
2022-09-07T04:18:38.325Z,14.25
2022-09-07T04:21:05.032Z,14.20
2022-09-07T04:23:31.739Z,14.17
2022-09-07T04:25:58.400Z,14.07
2022-09-07T04:28:25.262Z,14.10
2022-09-07T04:30:51.913Z,14.09
2022-09-07T04:33:18.890Z,14.04
2022-09-07T04:35:45.460Z,14.03
2022-09-07T04:38:14.891Z,14.02
2022-09-07T04:40:41.733Z,13.97
2022-09-07T04:43:09.636Z,13.88
2022-09-07T04:45:37.258Z,13.86
2022-09-07T04:48:04.449Z,13.84
2022-09-07T04:50:31.497Z,13.86
2022-09-07T04:52:58.115Z,13.82
2022-09-07T04:55:24.739Z,13.81
2022-09-07T04:57:51.341Z,13.74
2022-09-07T05:00:18.115Z,13.69
2022-09-07T05:02:44.756Z,13.67
2022-09-07T05:05:11.506Z,13.66
2022-09-07T05:07:38.093Z,13.63
2022-09-07T05:10:05.118Z,13.64
2022-09-07T05:12:31.692Z,13.66
2022-09-07T05:14:58.400Z,13.69
2022-09-07T05:17:24.979Z,13.70
2022-09-07T05:19:51.534Z,13.77
2022-09-07T05:22:19.331Z,13.72
2022-09-07T05:24:47.635Z,13.74
2022-09-07T05:27:14.320Z,13.86
2022-09-07T05:32:27.517Z,13.92
2022-09-07T05:34:54.115Z,13.95
2022-09-07T05:37:20.745Z,13.95
2022-09-07T05:39:48.254Z,13.99
2022-09-07T05:42:15.012Z,14.07
2022-09-07T05:47:13.310Z,14.09
2022-09-07T05:49:40.075Z,14.24
2022-09-07T05:52:06.909Z,14.41
2022-09-07T05:54:33.656Z,14.48
2022-09-07T05:57:00.269Z,14.55
2022-09-07T05:59:26.874Z,14.71
2022-09-07T06:01:53.532Z,14.87
2022-09-07T06:04:20.220Z,15.03
2022-09-07T06:06:59.289Z,15.15
2022-09-07T06:09:33.660Z,15.31
2022-09-07T06:12:00.272Z,15.40
2022-09-07T06:14:26.864Z,15.50
2022-09-07T06:16:53.768Z,15.53
2022-09-07T06:19:20.444Z,15.63
2022-09-07T06:21:47.014Z,15.78
2022-09-07T06:24:13.822Z,15.88
2022-09-07T06:26:40.416Z,16.05
2022-09-07T06:29:07.138Z,16.18
2022-09-07T06:31:33.927Z,16.40
2022-09-07T06:34:01.049Z,16.52
2022-09-07T06:36:28.240Z,16.71
2022-09-07T06:38:56.207Z,16.78
2022-09-07T06:44:17.307Z,17.27
2022-09-07T06:49:30.469Z,17.43
2022-09-07T06:51:57.067Z,17.42
2022-09-07T06:57:10.263Z,17.51
2022-09-07T06:59:37.582Z,17.71
2022-09-07T07:02:05.299Z,18.04
2022-09-07T07:04:33.300Z,18.40
2022-09-07T07:07:03.064Z,18.73
2022-09-07T07:09:29.641Z,18.73
2022-09-07T07:11:56.187Z,18.83
2022-09-07T07:14:22.757Z,18.73
2022-09-07T07:16:49.909Z,18.95
2022-09-07T07:19:16.728Z,19.15
2022-09-07T07:22:10.381Z,19.29
2022-09-07T07:24:30.645Z,19.35
2022-09-07T07:26:57.562Z,19.38
2022-09-07T07:29:27.982Z,19.63
2022-09-07T07:31:54.964Z,19.62
2022-09-07T07:34:21.647Z,19.66
2022-09-07T07:36:48.238Z,19.70
2022-09-07T07:42:03.200Z,19.89
2022-09-07T07:44:32.056Z,19.82
2022-09-07T07:46:58.683Z,20.02
2022-09-07T07:49:25.272Z,20.08
2022-09-07T07:54:41.583Z,20.40
2022-09-07T07:57:08.357Z,20.59
2022-09-07T07:59:35.425Z,20.78
2022-09-07T08:02:05.048Z,21.00
2022-09-07T08:04:35.242Z,21.15
2022-09-07T08:07:08.683Z,21.28
2022-09-07T08:09:37.275Z,21.25
2022-09-07T08:12:04.108Z,21.15
2022-09-07T08:14:30.654Z,21.25
2022-09-07T08:16:57.184Z,21.22
2022-09-07T08:19:23.701Z,21.23
2022-09-07T08:21:50.239Z,21.28
2022-09-07T08:24:16.798Z,21.35
2022-09-07T08:26:43.409Z,21.57
2022-09-07T08:29:09.918Z,21.56
2022-09-07T08:31:36.616Z,21.72
2022-09-07T08:34:03.231Z,21.94
2022-09-07T08:36:31.826Z,22.01
2022-09-07T08:38:58.497Z,22.00
2022-09-07T08:41:59.561Z,22.22
2022-09-07T08:44:28.761Z,22.00
2022-09-07T08:47:23.378Z,22.15
2022-09-07T08:49:56.320Z,22.25
2022-09-07T08:52:25.701Z,22.42
2022-09-07T08:55:04.802Z,22.50
2022-09-07T08:57:33.562Z,22.96
2022-09-07T09:00:07.815Z,23.13
2022-09-07T09:02:40.140Z,22.78
2022-09-07T09:05:35.015Z,22.61
2022-09-07T09:08:14.325Z,22.81
2022-09-07T09:10:53.482Z,22.99
2022-09-07T09:13:27.638Z,23.15
2022-09-07T09:16:03.266Z,23.32
2022-09-07T09:18:44.755Z,23.66
2022-09-07T09:21:17.030Z,23.99
2022-09-07T09:23:45.775Z,24.26
2022-09-07T09:26:12.335Z,24.50
2022-09-07T09:28:39.448Z,24.82
2022-09-07T09:31:06.861Z,24.87
2022-09-07T09:33:33.448Z,25.05
2022-09-07T09:36:01.125Z,25.91
2022-09-07T09:38:31.802Z,26.56
2022-09-07T09:40:59.733Z,27.18
2022-09-07T09:43:33.007Z,27.30
2022-09-07T09:46:17.200Z,27.64
2022-09-07T09:48:50.505Z,28.74
2022-09-07T09:54:23.117Z,28.44
2022-09-07T09:56:50.988Z,27.82
2022-09-07T10:05:37.948Z,28.73
2022-09-07T10:08:15.636Z,29.37
2022-09-07T10:11:00.491Z,30.12
2022-09-07T10:13:54.840Z,31.35
2022-09-07T10:16:36.381Z,30.43
2022-09-07T10:19:03.007Z,29.76
2022-09-07T10:21:30.917Z,29.51
2022-09-07T10:24:06.605Z,28.94
2022-09-07T10:26:37.790Z,28.69
2022-09-07T10:29:28.691Z,28.47
2022-09-07T10:32:26.244Z,28.74
2022-09-07T10:35:38.364Z,28.90
2022-09-07T10:38:15.125Z,28.34
2022-09-07T10:40:58.926Z,28.33
2022-09-07T10:43:43.732Z,27.55
2022-09-07T10:49:06.037Z,29.96
2022-09-07T10:51:54.028Z,29.61
2022-09-07T10:54:48.592Z,29.08
2022-09-07T10:57:48.269Z,28.60
2022-09-07T11:00:17.784Z,28.33
2022-09-07T11:06:02.445Z,27.12
2022-09-07T11:14:20.386Z,26.17
2022-09-07T11:17:12.641Z,26.01
2022-09-07T11:19:45.250Z,25.84
2022-09-07T11:22:32.421Z,26.40
2022-09-07T11:27:56.343Z,28.78
2022-09-07T11:30:27.363Z,28.44
2022-09-07T11:33:05.386Z,27.72
2022-09-07T11:35:51.826Z,26.98
2022-09-07T11:38:31.134Z,26.36
2022-09-07T11:41:16.028Z,25.69
2022-09-07T11:43:53.367Z,25.34
2022-09-07T11:46:26.878Z,26.49
2022-09-07T11:48:55.994Z,29.47
2022-09-07T11:51:38.648Z,32.08
2022-09-07T11:54:35.666Z,34.85
2022-09-07T11:57:14.321Z,37.34
2022-09-07T11:59:58.750Z,39.18
2022-09-07T12:03:05.482Z,40.17
2022-09-07T12:05:43.786Z,40.74
2022-09-07T12:08:19.130Z,41.26
2022-09-07T12:11:09.601Z,41.70
2022-09-07T12:13:53.238Z,38.77
2022-09-07T12:16:28.847Z,36.40
2022-09-07T12:19:01.185Z,36.11
2022-09-07T12:21:38.105Z,36.00
2022-09-07T12:24:05.010Z,38.71
2022-09-07T12:26:35.424Z,39.74
2022-09-07T12:29:01.985Z,38.01
2022-09-07T12:31:57.649Z,35.33
2022-09-07T12:34:31.340Z,32.92
2022-09-07T12:37:26.723Z,32.07
2022-09-07T12:40:30.066Z,30.62
2022-09-07T12:43:15.044Z,29.08
2022-09-07T12:45:44.527Z,28.56
2022-09-07T12:48:32.142Z,28.35
2022-09-07T12:50:59.010Z,29.52
2022-09-07T12:53:33.128Z,30.79
2022-09-07T12:56:24.681Z,31.90
2022-09-07T12:59:19.779Z,31.81
2022-09-07T13:02:14.128Z,32.70
2022-09-07T13:05:15.500Z,34.53
2022-09-07T13:08:08.031Z,36.98
2022-09-07T13:10:37.440Z,38.30
2022-09-07T13:13:16.118Z,38.35
2022-09-07T13:15:45.865Z,36.77
2022-09-07T13:18:35.718Z,35.73
2022-09-07T13:21:08.349Z,34.73
2022-09-07T13:23:35.832Z,33.33
2022-09-07T13:26:03.461Z,32.33
2022-09-07T13:28:51.369Z,30.53
2022-09-07T13:31:26.845Z,29.73
2022-09-07T13:33:53.992Z,29.33
2022-09-07T13:36:25.755Z,28.63
2022-09-07T13:38:53.564Z,28.41
2022-09-07T13:41:27.547Z,27.73
2022-09-07T13:44:00.423Z,27.87
2022-09-07T13:46:51.152Z,27.90
2022-09-07T13:49:55.075Z,27.71
2022-09-07T13:52:51.900Z,27.51
2022-09-07T13:55:27.537Z,27.11
2022-09-07T13:57:58.559Z,26.55
2022-09-07T14:00:25.143Z,26.45
2022-09-07T14:02:56.799Z,26.22
2022-09-07T14:05:23.856Z,26.07
2022-09-07T14:07:50.383Z,25.90
2022-09-07T14:10:25.055Z,25.97
2022-09-07T14:12:54.030Z,26.21
2022-09-07T14:15:32.404Z,26.37
2022-09-07T14:18:10.998Z,26.56
2022-09-07T14:20:44.161Z,26.80
2022-09-07T14:23:27.070Z,27.27
2022-09-07T14:26:17.267Z,27.75
2022-09-07T14:28:46.058Z,27.45
2022-09-07T14:31:15.382Z,26.89
2022-09-07T14:33:58.959Z,26.52
2022-09-07T14:36:44.623Z,26.40
2022-09-07T14:39:12.992Z,26.25
2022-09-07T14:41:41.437Z,26.15
2022-09-07T14:44:36.460Z,26.49
2022-09-07T14:47:18.915Z,26.69
2022-09-07T14:49:51.958Z,26.49
2022-09-07T14:52:31.289Z,25.90
2022-09-07T14:54:57.972Z,25.79
2022-09-07T14:57:30.653Z,25.84
2022-09-07T14:59:58.866Z,25.96
2022-09-07T15:02:37.861Z,26.11
2022-09-07T15:05:25.489Z,26.18
2022-09-07T15:07:53.398Z,26.24
2022-09-07T15:10:23.713Z,26.31
2022-09-07T15:12:55.120Z,26.11
2022-09-07T15:15:27.043Z,25.89
2022-09-07T15:17:55.475Z,25.51
2022-09-07T15:20:40.247Z,25.27
2022-09-07T15:23:14.923Z,24.87
2022-09-07T15:25:45.374Z,24.79
2022-09-07T15:29:08.115Z,24.77
2022-09-07T15:34:04.484Z,24.55
2022-09-07T15:36:31.944Z,24.59
2022-09-07T15:39:00.115Z,24.45
2022-09-07T15:41:27.754Z,24.44
2022-09-07T15:43:54.380Z,24.39
2022-09-07T15:46:21.179Z,24.42
2022-09-07T15:48:52.764Z,24.53
2022-09-07T15:54:08.009Z,25.03
2022-09-07T15:56:38.912Z,25.44
2022-09-07T15:59:05.833Z,25.52
2022-09-07T16:04:19.449Z,25.05
2022-09-07T16:06:48.288Z,24.79
2022-09-07T16:09:15.482Z,24.66
2022-09-07T16:11:42.065Z,24.53
2022-09-07T16:14:11.718Z,24.38
2022-09-07T16:19:24.824Z,24.34
2022-09-07T16:21:51.579Z,24.13
2022-09-07T16:24:18.343Z,24.06
2022-09-07T16:26:44.988Z,23.96
2022-09-07T16:29:11.560Z,23.84
2022-09-07T16:31:38.424Z,23.69
2022-09-07T16:34:05.510Z,23.53
2022-09-07T16:36:32.094Z,23.44
2022-09-07T16:39:00.314Z,23.35
2022-09-07T16:41:31.025Z,23.21
2022-09-07T16:43:58.323Z,23.09
2022-09-07T16:46:26.983Z,22.93
2022-09-07T16:48:53.857Z,22.84
2022-09-07T16:51:22.596Z,22.71
2022-09-07T16:53:50.885Z,22.61
2022-09-07T16:56:20.017Z,22.57
2022-09-07T16:58:52.375Z,22.43
2022-09-07T17:01:21.557Z,22.39
2022-09-07T17:03:51.775Z,22.39
2022-09-07T17:06:20.360Z,22.38
2022-09-07T17:08:47.220Z,22.33
2022-09-07T17:11:17.628Z,22.22
2022-09-07T17:13:44.655Z,22.19
2022-09-07T17:16:12.855Z,22.15
2022-09-07T17:21:34.819Z,22.00
2022-09-07T17:24:04.315Z,21.91
2022-09-07T17:26:31.945Z,21.75
2022-09-07T17:29:00.612Z,21.65
2022-09-07T17:34:19.575Z,21.36
2022-09-07T17:36:46.346Z,21.19
2022-09-07T17:39:16.026Z,21.09
2022-09-07T17:41:44.711Z,21.02
2022-09-07T17:44:11.314Z,20.94
2022-09-07T17:46:38.160Z,20.83
2022-09-07T17:49:07.043Z,20.61
2022-09-07T17:51:33.708Z,20.49
2022-09-07T17:54:12.313Z,20.29
2022-09-07T17:56:40.026Z,20.11
2022-09-07T18:01:54.367Z,19.75
2022-09-07T18:04:21.337Z,19.54
2022-09-07T18:06:48.288Z,19.31
2022-09-07T18:09:14.941Z,19.18
2022-09-07T18:11:44.844Z,19.01
2022-09-07T18:14:13.642Z,18.87
2022-09-07T18:16:40.396Z,18.74
2022-09-07T18:19:09.793Z,18.62
2022-09-07T18:21:37.935Z,18.51
2022-09-07T18:24:07.578Z,18.38
2022-09-07T18:26:35.771Z,18.28
2022-09-07T18:29:04.803Z,18.22
2022-09-07T18:31:33.426Z,18.19
2022-09-07T18:34:01.673Z,18.02
2022-09-07T18:36:29.087Z,17.88
2022-09-07T18:38:55.755Z,17.86
2022-09-07T18:41:22.291Z,17.83
2022-09-07T18:43:49.458Z,17.85
2022-09-07T18:46:21.134Z,17.83
2022-09-07T18:48:47.779Z,17.84
2022-09-07T18:51:15.088Z,17.81
2022-09-07T18:53:41.771Z,17.76
2022-09-07T18:56:13.186Z,17.62
2022-09-07T18:58:40.089Z,17.53
2022-09-07T19:01:08.854Z,17.41
2022-09-07T19:03:36.108Z,17.30
2022-09-07T19:06:05.333Z,17.19
2022-09-07T19:08:32.942Z,17.14
2022-09-07T19:11:07.013Z,17.13
2022-09-07T19:13:34.987Z,17.18
2022-09-07T19:16:12.685Z,17.19
2022-09-07T19:18:44.735Z,17.13
2022-09-07T19:21:16.607Z,17.05
2022-09-07T19:23:43.379Z,17.04
2022-09-07T19:26:10.579Z,17.01
2022-09-07T19:28:37.125Z,16.94
2022-09-07T19:31:05.757Z,16.81
2022-09-07T19:33:33.364Z,16.75
2022-09-07T19:36:06.568Z,16.66
2022-09-07T19:38:33.480Z,16.65
2022-09-07T19:41:01.008Z,16.69
2022-09-07T19:43:31.507Z,16.60
2022-09-07T19:45:58.184Z,16.49
2022-09-07T19:48:25.293Z,16.38
2022-09-07T19:50:51.876Z,16.36
2022-09-07T19:53:19.012Z,16.39
2022-09-07T19:55:45.885Z,16.34
2022-09-07T19:58:12.891Z,16.30
2022-09-07T20:00:41.674Z,16.30
2022-09-07T20:03:10.516Z,16.33
2022-09-07T20:05:38.612Z,16.44
2022-09-07T20:08:05.293Z,16.50
2022-09-07T20:10:32.761Z,16.46
2022-09-07T20:12:59.708Z,16.32
2022-09-07T20:15:26.537Z,16.32
2022-09-07T20:17:53.902Z,16.19
2022-09-07T20:20:21.224Z,16.13
2022-09-07T20:22:48.065Z,16.09
2022-09-07T20:25:14.650Z,16.01
2022-09-07T20:27:41.649Z,16.02
2022-09-07T20:30:08.602Z,16.02
2022-09-07T20:32:35.150Z,15.91
2022-09-07T20:35:01.771Z,15.84
2022-09-07T20:37:28.363Z,15.75
2022-09-07T20:39:55.002Z,15.73
2022-09-07T20:42:21.618Z,15.73
2022-09-07T20:44:48.141Z,15.64
2022-09-07T20:47:14.683Z,15.59
2022-09-07T20:49:41.199Z,15.54
2022-09-07T20:52:07.746Z,15.51
2022-09-07T20:54:34.272Z,15.48
2022-09-07T20:57:03.844Z,15.44
2022-09-07T20:59:30.750Z,15.41
2022-09-07T21:01:57.435Z,15.37
2022-09-07T21:04:26.366Z,15.32
2022-09-07T21:06:53.063Z,15.27
2022-09-07T21:09:20.039Z,15.22
2022-09-07T21:11:49.712Z,15.14
2022-09-07T21:14:17.830Z,15.03
2022-09-07T21:16:44.493Z,14.98
2022-09-07T21:19:11.176Z,14.93
2022-09-07T21:21:39.867Z,14.83
2022-09-07T21:24:09.292Z,14.80
2022-09-07T21:26:35.829Z,14.85
2022-09-07T21:29:04.954Z,14.81
2022-09-07T21:31:33.409Z,14.80
2022-09-07T21:34:01.838Z,14.84
2022-09-07T21:36:28.752Z,14.88
2022-09-07T21:38:55.859Z,14.83
2022-09-07T21:41:23.791Z,14.84
2022-09-07T21:43:55.385Z,14.81
2022-09-07T21:46:21.932Z,14.71
2022-09-07T21:48:48.514Z,14.67
2022-09-07T21:51:15.457Z,14.60
2022-09-07T21:53:43.115Z,14.50
2022-09-07T21:56:12.828Z,14.41
2022-09-07T21:58:40.100Z,14.36
2022-09-07T22:01:26.533Z,14.30
2022-09-07T22:03:59.655Z,14.34
2022-09-07T22:06:27.880Z,14.28
2022-09-07T22:08:55.805Z,14.28
2022-09-07T22:11:23.870Z,14.24
2022-09-07T22:13:55.547Z,14.22
2022-09-07T22:16:22.486Z,14.21
2022-09-07T22:18:49.282Z,14.21
2022-09-07T22:21:21.467Z,14.23
2022-09-07T22:23:51.010Z,14.23
2022-09-07T22:26:19.628Z,14.22
2022-09-07T22:28:46.667Z,14.17
2022-09-07T22:31:13.299Z,14.13
2022-09-07T22:33:40.947Z,14.10
2022-09-07T22:36:15.893Z,14.01
2022-09-07T22:38:43.575Z,13.98
2022-09-07T22:41:15.175Z,13.96
2022-09-07T22:43:42.676Z,13.87
2022-09-07T22:46:10.038Z,13.90
2022-09-07T22:48:36.734Z,13.86
2022-09-07T22:51:04.228Z,13.85
2022-09-07T22:53:33.467Z,13.86
2022-09-07T22:56:01.528Z,13.86
2022-09-07T22:58:29.099Z,13.80
2022-09-07T23:01:00.887Z,13.70
2022-09-07T23:03:32.085Z,13.58
2022-09-07T23:05:58.800Z,13.58
2022-09-07T23:08:26.032Z,13.59
2022-09-07T23:10:53.063Z,13.60
2022-09-07T23:13:20.068Z,13.64
2022-09-07T23:15:47.230Z,13.73
2022-09-07T23:18:18.897Z,13.74
2022-09-07T23:20:45.420Z,13.71
2022-09-07T23:23:13.384Z,13.72
2022-09-07T23:25:41.314Z,13.74
2022-09-07T23:28:10.717Z,13.69
2022-09-07T23:30:37.574Z,13.71
2022-09-07T23:33:04.151Z,13.66
2022-09-07T23:35:30.705Z,13.62
2022-09-07T23:37:57.263Z,13.61
2022-09-07T23:40:24.223Z,13.62
2022-09-07T23:42:50.883Z,13.67
2022-09-07T23:45:17.463Z,13.72
2022-09-07T23:47:44.052Z,13.71
2022-09-07T23:50:11.097Z,13.68
2022-09-07T23:52:38.009Z,13.63
2022-09-07T23:55:05.334Z,13.66
2022-09-07T23:57:31.900Z,13.66
2022-09-07T23:59:58.895Z,13.63
